Wednesday, February 20, 2019, 1:55 PM CST
Back to Local

KT82, Fredericksburg, Gillespie County Airport

Location: Fredericksburg, TX, United States Lat: 30.244
Local Time: 1:55 PM CST (19:55 GMT) Lon: -98.909
Time Zone: US/Central Elev: 1696 ft

Show me the last for .
Show Decoded

2019-02-20 13:35 METAR KT82 201935Z AUTO 29007KT 10SM CLR 15/M06 A2997 RMK AO2 T01491059 =
2019-02-20 13:15 METAR KT82 201915Z AUTO 01004KT 10SM CLR 14/M06 A2998 RMK AO2 T01411059 =
2019-02-20 12:55 METAR KT82 201855Z AUTO 32005KT 10SM CLR 14/M07 A2999 RMK AO2 T01391070 =
2019-02-20 12:35 METAR KT82 201835Z AUTO 36007KT 10SM CLR 14/M07 A2999 RMK AO2 T01351068 =
2019-02-20 12:15 METAR KT82 201815Z AUTO 32006KT 10SM CLR 13/M05 A3000 RMK AO2 T01341055 =
2019-02-20 11:55 METAR KT82 201755Z AUTO 34008KT 10SM CLR 13/M07 A3001 RMK AO2 T01301068 10132
                 20001 =
2019-02-20 11:35 METAR KT82 201735Z AUTO 35010KT 10SM CLR 13/M05 A3001 RMK AO2 T01291055 =
2019-02-20 11:15 METAR KT82 201715Z AUTO 31007KT 10SM CLR 12/M03 A3002 RMK AO2 T01241029 =
2019-02-20 10:55 METAR KT82 201655Z AUTO 34006KT 10SM CLR 12/M03 A3002 RMK AO2 T01161028 =
2019-02-20 10:35 METAR KT82 201635Z AUTO 32008KT 10SM CLR 11/M02 A3002 RMK AO2 T01101020 =
2019-02-20 10:15 METAR KT82 201615Z AUTO 34008KT 10SM CLR 10/M02 A3002 RMK AO2 T01021020 =
2019-02-20 09:55 METAR KT82 201555Z AUTO 30007KT 10SM CLR 10/M01 A3002 RMK AO2 T00961007 =
2019-02-20 09:35 METAR KT82 201535Z AUTO 33007KT 10SM CLR 09/00 A3002 RMK AO2 T00890000 =
2019-02-20 09:15 METAR KT82 201515Z AUTO 00000KT 10SM CLR 05/02 A3002 RMK AO2 T00500021 =
2019-02-20 08:55 METAR KT82 201455Z AUTO 00000KT 10SM CLR 04/02 A3001 RMK AO2 T00360015 =
2019-02-20 08:35 METAR KT82 201435Z AUTO 00000KT 10SM CLR 02/01 A3000 RMK AO2 T00240010 =
2019-02-20 08:15 METAR KT82 201415Z AUTO 00000KT 10SM CLR 02/01 A3000 RMK AO2 T00150006 =
2019-02-20 07:55 METAR KT82 201355Z AUTO 00000KT 7SM CLR 01/00 A2999 RMK AO2 T00070000 =
2019-02-20 07:35 METAR KT82 201335Z AUTO 00000KT 5SM BR CLR 00/00 A2999 RMK AO2 T00021002 =
2019-02-20 07:15 METAR KT82 201315Z AUTO 00000KT 7SM CLR 00/00 A2999 RMK AO2 T00011005 =
2019-02-20 06:55 METAR KT82 201255Z AUTO 25003KT 10SM CLR 00/00 A2998 RMK AO2 T00021003 =
2019-02-20 06:35 METAR KT82 201235Z AUTO 00000KT 10SM CLR 00/00 A2997 RMK AO2 T00031001 =
2019-02-20 06:15 METAR KT82 201215Z AUTO 00000KT 7SM CLR 01/00 A2997 RMK AO2 T00050000 =
2019-02-20 05:55 METAR KT82 201155Z AUTO 25003KT 7SM CLR 01/00 A2997 RMK AO2 T00070000 10035
                 20007 =
2019-02-20 05:35 METAR KT82 201135Z AUTO 00000KT 10SM CLR 01/00 A2997 RMK AO2 T00110001 =
2019-02-20 05:15 METAR KT82 201115Z AUTO 00000KT 10SM SCT005 01/00 A2996 RMK AO2 T00110001 =
2019-02-20 04:55 METAR KT82 201055Z AUTO 29004KT 10SM BKN005 01/00 A2995 RMK AO2 T00130003 =
2019-02-20 04:35 METAR KT82 201035Z AUTO 29003KT 10SM OVC005 02/01 A2995 RMK AO2 T00150005 =
2019-02-20 04:15 METAR KT82 201015Z AUTO 29005KT 10SM OVC005 02/01 A2995 RMK AO2 T00160006 =
2019-02-20 03:55 METAR KT82 200955Z AUTO 30005KT 10SM OVC005 02/01 A2994 RMK AO2 T00180007 =
2019-02-20 03:35 METAR KT82 200935Z AUTO 31008KT 10SM OVC007 02/01 A2994 RMK AO2 T00200010 =
2019-02-20 03:15 METAR KT82 200915Z AUTO 30007KT 10SM OVC007 02/01 A2995 RMK AO2 T00230012 =
2019-02-20 02:55 METAR KT82 200855Z AUTO 31006KT 10SM OVC007 02/01 A2995 RMK AO2 T00230012 =
2019-02-20 02:35 METAR KT82 200835Z AUTO 31006KT 10SM OVC007 02/01 A2993 RMK AO2 T00210011 =
2019-02-20 02:15 METAR KT82 200815Z AUTO 31008KT 10SM OVC007 02/01 A2994 RMK AO2 T00220011 =
2019-02-20 01:55 METAR KT82 200755Z AUTO 33005KT 10SM OVC007 02/01 A2994 RMK AO2 T00230011 =
2019-02-20 01:35 METAR KT82 200735Z AUTO 32010KT 10SM OVC009 03/01 A2996 RMK AO2 T00260013 =
2019-02-20 01:15 METAR KT82 200715Z AUTO 33006KT 10SM BKN009 03/01 A2996 RMK AO2 T00250010 =
2019-02-20 00:55 METAR KT82 200655Z AUTO 31005KT 10SM SCT009 BKN037 03/01 A2995 RMK AO2 T00280013
                 =
2019-02-20 00:35 METAR KT82 200635Z AUTO 33007KT 10SM BKN007 OVC035 03/02 A2995 RMK AO2 T00340020
                 =
2019-02-20 00:15 METAR KT82 200615Z AUTO 33003KT 10SM OVC007 03/02 A2994 RMK AO2 T00340020 =
2019-02-19 23:55 METAR KT82 200555Z AUTO 35005KT 10SM OVC009 03/02 A2994 RMK AO2 T00320020 10038
                 20031 400430022 =
2019-02-19 23:35 METAR KT82 200535Z AUTO 36007KT 10SM SCT008 BKN011 OVC032 03/02 A2993 RMK AO2
                 T00320021 =
2019-02-19 23:15 METAR KT82 200515Z AUTO 03004KT 10SM OVC008 03/02 A2993 RMK AO2 T00320020 =
2019-02-19 22:55 METAR KT82 200455Z AUTO 34012KT 10SM OVC008 03/02 A2995 RMK AO2 T00320021 =
2019-02-19 22:35 METAR KT82 200435Z AUTO 34007KT 7SM OVC008 03/02 A2995 RMK AO2 T00320021 =
2019-02-19 22:15 METAR KT82 200415Z AUTO 35006KT 10SM OVC010 03/02 A2994 RMK AO2 T00330020 =
2019-02-19 21:55 METAR KT82 200355Z AUTO 35010KT 10SM BKN008 OVC013 03/02 A2994 RMK AO2 T00330022
                 =
2019-02-19 21:35 METAR KT82 200335Z AUTO 35007KT 5SM BR OVC008 04/03 A2993 RMK AO2 T00350025 =
2019-02-19 21:15 METAR KT82 200315Z AUTO 36009KT 7SM -DZ OVC008 04/03 A2992 RMK AO2 T00350026 =
2019-02-19 20:55 METAR KT82 200255Z AUTO 35005KT 5SM DZ OVC008 04/03 A2992 RMK AO2 T00350025 =
2019-02-19 20:35 METAR KT82 200235Z AUTO 34006KT 5SM DZ OVC008 03/03 A2991 RMK AO2 T00340025 =
2019-02-19 20:15 METAR KT82 200215Z AUTO 34007KT 3SM -DZ OVC006 03/03 A2990 RMK AO2 T00330025 =
2019-02-19 19:55 METAR KT82 200155Z AUTO 35008KT 3SM DZ OVC004 03/03 A2988 RMK AO2 T00330025 =
2019-02-19 19:35 METAR KT82 200135Z AUTO 01008KT 4SM BR OVC004 03/03 A2986 RMK AO2 T00330025 =
2019-02-19 19:15 METAR KT82 200115Z AUTO 02008KT 3SM BR OVC004 03/03 A2984 RMK AO2 T00330025 =
2019-02-19 18:55 METAR KT82 200055Z AUTO 04008KT 4SM BR OVC004 04/03 A2982 RMK AO2 T00350025 =
2019-02-19 18:35 METAR KT82 200035Z AUTO 04006KT 4SM BR OVC004 04/03 A2982 RMK AO2 T00350025 =
2019-02-19 18:15 METAR KT82 200015Z AUTO 04006KT 3SM BR OVC006 04/03 A2983 RMK AO2 T00360027 =
2019-02-19 17:55 METAR KT82 192355Z AUTO 02007KT 2SM BR OVC006 04/03 A2984 RMK AO2 T00390029
                 10043 20037 =
2019-02-19 17:35 METAR KT82 192335Z AUTO 02005KT 7SM OVC006 04/03 A2984 RMK AO2 T00400028 =
2019-02-19 17:15 METAR KT82 192315Z AUTO 03005KT 10SM OVC006 04/03 A2983 RMK AO2 T00410031 =
2019-02-19 16:55 METAR KT82 192255Z AUTO 06006KT 5SM BR OVC006 04/03 A2983 RMK AO2 T00410031 =
2019-02-19 16:35 METAR KT82 192235Z AUTO 06005KT 3SM BR OVC006 04/03 A2983 RMK AO2 T00430033 =
2019-02-19 16:15 METAR KT82 192215Z AUTO 04006KT 4SM BR OVC006 04/03 A2984 RMK AO2 T00410031 =
2019-02-19 15:55 METAR KT82 192155Z AUTO 04007KT 7SM OVC006 04/03 A2983 RMK AO2 T00420032 =
2019-02-19 15:35 METAR KT82 192135Z AUTO 04007KT 3SM BR OVC006 04/03 A2985 RMK AO2 T00420032 =
2019-02-19 15:15 METAR KT82 192115Z AUTO 04006KT 4SM BR OVC006 04/03 A2986 RMK AO2 T00410031 =
2019-02-19 14:55 METAR KT82 192055Z AUTO 03005KT 2 1/2SM BR BKN007 OVC011 04/03 A2987 RMK AO2 LTG
                 DSNT NE T00410031 =
2019-02-19 14:35 METAR KT82 192035Z AUTO 05004KT 2 1/2SM DZ BKN005 OVC009 04/03 A2988 RMK AO2
                 T00400030 =
2019-02-19 14:15 METAR KT82 192015Z AUTO 34006KT 3SM BR OVC005 04/03 A2991 RMK AO2 T00380028 =

Support USWX by starting your Amazon purchase here.